sensor_id;sensor_type;location;lat;lon;timestamp;P1;durP1;ratioP1;P2;durP2;ratioP2
19521;SDS011;9905;52.126;5.596;2023-05-10T00:01:58;43.33;;;39.92;;
19521;SDS011;9905;52.126;5.596;2023-05-10T00:04:25;44.28;;;40.40;;
19521;SDS011;9905;52.126;5.596;2023-05-10T00:06:53;45.95;;;41.90;;
19521;SDS011;9905;52.126;5.596;2023-05-10T00:09:21;46.13;;;42.38;;
19521;SDS011;9905;52.126;5.596;2023-05-10T00:11:48;45.80;;;41.83;;
19521;SDS011;9905;52.126;5.596;2023-05-10T00:14:14;46.55;;;42.65;;
19521;SDS011;9905;52.126;5.596;2023-05-10T00:16:41;46.70;;;42.65;;
19521;SDS011;9905;52.126;5.596;2023-05-10T00:19:08;46.55;;;42.72;;
19521;SDS011;9905;52.126;5.596;2023-05-10T00:21:35;47.60;;;43.47;;
19521;SDS011;9905;52.126;5.596;2023-05-10T00:24:02;47.38;;;43.17;;
19521;SDS011;9905;52.126;5.596;2023-05-10T00:26:31;47.58;;;43.45;;
19521;SDS011;9905;52.126;5.596;2023-05-10T00:28:58;48.97;;;44.45;;
19521;SDS011;9905;52.126;5.596;2023-05-10T00:31:25;48.08;;;43.78;;
19521;SDS011;9905;52.126;5.596;2023-05-10T00:33:53;48.85;;;44.13;;
19521;SDS011;9905;52.126;5.596;2023-05-10T00:36:19;50.40;;;45.67;;
19521;SDS011;9905;52.126;5.596;2023-05-10T00:38:46;52.15;;;46.72;;
19521;SDS011;9905;52.126;5.596;2023-05-10T00:41:13;51.20;;;46.25;;
19521;SDS011;9905;52.126;5.596;2023-05-10T00:43:42;51.65;;;46.35;;
19521;SDS011;9905;52.126;5.596;2023-05-10T00:46:08;49.97;;;44.83;;
19521;SDS011;9905;52.126;5.596;2023-05-10T00:48:35;51.58;;;46.08;;
19521;SDS011;9905;52.126;5.596;2023-05-10T00:51:02;51.80;;;46.58;;
19521;SDS011;9905;52.126;5.596;2023-05-10T00:53:30;52.17;;;46.60;;
19521;SDS011;9905;52.126;5.596;2023-05-10T00:55:58;52.50;;;47.05;;
19521;SDS011;9905;52.126;5.596;2023-05-10T00:58:25;54.20;;;48.53;;
19521;SDS011;9905;52.126;5.596;2023-05-10T01:00:54;53.40;;;47.63;;
19521;SDS011;9905;52.126;5.596;2023-05-10T01:03:22;56.97;;;49.97;;
19521;SDS011;9905;52.126;5.596;2023-05-10T01:05:49;53.83;;;48.13;;
19521;SDS011;9905;52.126;5.596;2023-05-10T01:08:16;54.20;;;48.30;;
19521;SDS011;9905;52.126;5.596;2023-05-10T01:10:43;55.30;;;49.30;;
19521;SDS011;9905;52.126;5.596;2023-05-10T01:13:11;57.63;;;50.70;;
19521;SDS011;9905;52.126;5.596;2023-05-10T01:15:39;59.88;;;50.22;;
19521;SDS011;9905;52.126;5.596;2023-05-10T01:18:08;63.63;;;52.88;;
19521;SDS011;9905;52.126;5.596;2023-05-10T01:20:35;56.13;;;49.90;;
19521;SDS011;9905;52.126;5.596;2023-05-10T01:23:30;58.85;;;50.05;;
19521;SDS011;9905;52.126;5.596;2023-05-10T01:26:14;62.28;;;52.60;;
19521;SDS011;9905;52.126;5.596;2023-05-10T01:29:11;61.00;;;50.95;;
19521;SDS011;9905;52.126;5.596;2023-05-10T01:34:54;68.90;;;52.97;;
19521;SDS011;9905;52.126;5.596;2023-05-10T01:37:29;61.90;;;50.80;;
19521;SDS011;9905;52.126;5.596;2023-05-10T01:40:03;65.07;;;50.70;;
19521;SDS011;9905;52.126;5.596;2023-05-10T01:42:36;62.55;;;51.22;;
19521;SDS011;9905;52.126;5.596;2023-05-10T01:45:07;65.68;;;51.35;;
19521;SDS011;9905;52.126;5.596;2023-05-10T01:47:43;65.28;;;50.45;;
19521;SDS011;9905;52.126;5.596;2023-05-10T01:50:15;69.47;;;52.45;;
19521;SDS011;9905;52.126;5.596;2023-05-10T01:52:51;69.00;;;52.17;;
19521;SDS011;9905;52.126;5.596;2023-05-10T01:55:21;65.97;;;51.58;;
19521;SDS011;9905;52.126;5.596;2023-05-10T01:57:52;67.22;;;51.70;;
19521;SDS011;9905;52.126;5.596;2023-05-10T02:00:23;65.45;;;52.17;;
19521;SDS011;9905;52.126;5.596;2023-05-10T02:02:52;65.97;;;50.40;;
19521;SDS011;9905;52.126;5.596;2023-05-10T02:05:20;67.15;;;50.28;;
19521;SDS011;9905;52.126;5.596;2023-05-10T02:07:48;67.90;;;52.20;;
19521;SDS011;9905;52.126;5.596;2023-05-10T02:10:16;67.80;;;50.63;;
19521;SDS011;9905;52.126;5.596;2023-05-10T02:12:45;66.85;;;51.88;;
19521;SDS011;9905;52.126;5.596;2023-05-10T02:15:15;67.25;;;50.55;;
19521;SDS011;9905;52.126;5.596;2023-05-10T02:17:46;66.22;;;51.75;;
19521;SDS011;9905;52.126;5.596;2023-05-10T02:20:14;67.40;;;50.78;;
19521;SDS011;9905;52.126;5.596;2023-05-10T02:22:43;66.90;;;51.90;;
19521;SDS011;9905;52.126;5.596;2023-05-10T02:25:12;73.05;;;52.35;;
19521;SDS011;9905;52.126;5.596;2023-05-10T02:27:40;73.22;;;51.55;;
19521;SDS011;9905;52.126;5.596;2023-05-10T02:30:09;63.30;;;49.25;;
19521;SDS011;9905;52.126;5.596;2023-05-10T02:32:37;63.60;;;50.97;;
19521;SDS011;9905;52.126;5.596;2023-05-10T02:35:05;60.97;;;50.05;;
19521;SDS011;9905;52.126;5.596;2023-05-10T02:37:34;66.85;;;51.00;;
19521;SDS011;9905;52.126;5.596;2023-05-10T02:40:03;70.55;;;49.30;;
19521;SDS011;9905;52.126;5.596;2023-05-10T02:42:32;68.05;;;51.20;;
19521;SDS011;9905;52.126;5.596;2023-05-10T02:45:02;65.63;;;51.70;;
19521;SDS011;9905;52.126;5.596;2023-05-10T02:47:33;63.00;;;50.45;;
19521;SDS011;9905;52.126;5.596;2023-05-10T02:50:00;69.85;;;50.90;;
19521;SDS011;9905;52.126;5.596;2023-05-10T02:52:28;66.72;;;50.10;;
19521;SDS011;9905;52.126;5.596;2023-05-10T02:55:03;70.03;;;51.92;;
19521;SDS011;9905;52.126;5.596;2023-05-10T02:57:33;64.18;;;48.88;;
19521;SDS011;9905;52.126;5.596;2023-05-10T03:00:01;68.30;;;51.17;;
19521;SDS011;9905;52.126;5.596;2023-05-10T03:02:28;70.10;;;51.28;;
19521;SDS011;9905;52.126;5.596;2023-05-10T03:04:55;71.10;;;51.50;;
19521;SDS011;9905;52.126;5.596;2023-05-10T03:07:22;66.38;;;51.05;;
19521;SDS011;9905;52.126;5.596;2023-05-10T03:09:50;77.05;;;51.30;;
19521;SDS011;9905;52.126;5.596;2023-05-10T03:12:21;70.95;;;51.70;;
19521;SDS011;9905;52.126;5.596;2023-05-10T03:15:00;70.75;;;51.05;;
19521;SDS011;9905;52.126;5.596;2023-05-10T03:17:35;75.00;;;51.70;;
19521;SDS011;9905;52.126;5.596;2023-05-10T03:20:10;75.10;;;51.45;;
19521;SDS011;9905;52.126;5.596;2023-05-10T03:22:40;73.28;;;52.72;;
19521;SDS011;9905;52.126;5.596;2023-05-10T03:25:11;70.00;;;50.47;;
19521;SDS011;9905;52.126;5.596;2023-05-10T03:27:42;71.53;;;50.88;;
19521;SDS011;9905;52.126;5.596;2023-05-10T03:30:10;71.90;;;49.78;;
19521;SDS011;9905;52.126;5.596;2023-05-10T03:32:38;71.93;;;51.28;;
19521;SDS011;9905;52.126;5.596;2023-05-10T03:35:06;71.95;;;50.97;;
19521;SDS011;9905;52.126;5.596;2023-05-10T03:37:33;68.38;;;51.03;;
19521;SDS011;9905;52.126;5.596;2023-05-10T03:40:00;74.63;;;52.45;;
19521;SDS011;9905;52.126;5.596;2023-05-10T03:42:27;74.60;;;51.55;;
19521;SDS011;9905;52.126;5.596;2023-05-10T03:44:55;79.07;;;52.10;;
19521;SDS011;9905;52.126;5.596;2023-05-10T03:47:22;82.43;;;53.50;;
19521;SDS011;9905;52.126;5.596;2023-05-10T03:49:49;82.95;;;53.55;;
19521;SDS011;9905;52.126;5.596;2023-05-10T03:52:16;82.03;;;53.40;;
19521;SDS011;9905;52.126;5.596;2023-05-10T03:54:43;84.43;;;52.45;;
19521;SDS011;9905;52.126;5.596;2023-05-10T03:57:09;96.10;;;53.53;;
19521;SDS011;9905;52.126;5.596;2023-05-10T03:59:36;96.63;;;55.15;;
19521;SDS011;9905;52.126;5.596;2023-05-10T04:02:04;87.97;;;52.67;;
19521;SDS011;9905;52.126;5.596;2023-05-10T04:04:31;91.97;;;53.58;;
19521;SDS011;9905;52.126;5.596;2023-05-10T04:06:57;95.80;;;54.25;;
19521;SDS011;9905;52.126;5.596;2023-05-10T04:09:24;98.65;;;56.83;;
19521;SDS011;9905;52.126;5.596;2023-05-10T04:11:51;89.75;;;52.35;;
19521;SDS011;9905;52.126;5.596;2023-05-10T04:14:18;106.55;;;56.60;;
19521;SDS011;9905;52.126;5.596;2023-05-10T04:16:44;96.25;;;54.00;;
19521;SDS011;9905;52.126;5.596;2023-05-10T04:19:12;84.72;;;52.35;;
19521;SDS011;9905;52.126;5.596;2023-05-10T04:21:39;89.88;;;51.75;;
19521;SDS011;9905;52.126;5.596;2023-05-10T04:24:06;91.80;;;53.47;;
19521;SDS011;9905;52.126;5.596;2023-05-10T04:26:33;88.35;;;53.50;;
19521;SDS011;9905;52.126;5.596;2023-05-10T04:29:00;90.07;;;52.25;;
19521;SDS011;9905;52.126;5.596;2023-05-10T04:31:27;91.47;;;53.60;;
19521;SDS011;9905;52.126;5.596;2023-05-10T04:33:54;83.65;;;52.55;;
19521;SDS011;9905;52.126;5.596;2023-05-10T04:36:22;88.68;;;52.60;;
19521;SDS011;9905;52.126;5.596;2023-05-10T04:38:48;85.43;;;51.22;;
19521;SDS011;9905;52.126;5.596;2023-05-10T04:41:15;89.20;;;52.20;;
19521;SDS011;9905;52.126;5.596;2023-05-10T04:43:42;79.47;;;51.55;;
19521;SDS011;9905;52.126;5.596;2023-05-10T04:46:09;90.07;;;50.80;;
19521;SDS011;9905;52.126;5.596;2023-05-10T04:48:35;91.32;;;51.65;;
19521;SDS011;9905;52.126;5.596;2023-05-10T04:51:02;87.15;;;51.22;;
19521;SDS011;9905;52.126;5.596;2023-05-10T04:53:31;88.90;;;51.33;;
19521;SDS011;9905;52.126;5.596;2023-05-10T04:55:58;79.68;;;49.25;;
19521;SDS011;9905;52.126;5.596;2023-05-10T04:58:24;75.43;;;49.85;;
19521;SDS011;9905;52.126;5.596;2023-05-10T05:00:51;79.32;;;48.00;;
19521;SDS011;9905;52.126;5.596;2023-05-10T05:03:18;90.00;;;49.63;;
19521;SDS011;9905;52.126;5.596;2023-05-10T05:05:44;83.80;;;49.60;;
19521;SDS011;9905;52.126;5.596;2023-05-10T05:08:11;86.25;;;50.28;;
19521;SDS011;9905;52.126;5.596;2023-05-10T05:10:40;72.38;;;49.40;;
19521;SDS011;9905;52.126;5.596;2023-05-10T05:13:06;79.60;;;49.13;;
19521;SDS011;9905;52.126;5.596;2023-05-10T05:15:33;81.78;;;49.50;;
19521;SDS011;9905;52.126;5.596;2023-05-10T05:18:00;82.03;;;49.10;;
19521;SDS011;9905;52.126;5.596;2023-05-10T05:20:26;87.18;;;49.33;;
19521;SDS011;9905;52.126;5.596;2023-05-10T05:22:53;83.97;;;48.75;;
19521;SDS011;9905;52.126;5.596;2023-05-10T05:25:20;86.30;;;50.22;;
19521;SDS011;9905;52.126;5.596;2023-05-10T05:27:48;83.20;;;49.95;;
19521;SDS011;9905;52.126;5.596;2023-05-10T05:30:15;81.85;;;49.85;;
19521;SDS011;9905;52.126;5.596;2023-05-10T05:32:42;85.25;;;51.33;;
19521;SDS011;9905;52.126;5.596;2023-05-10T05:35:08;91.82;;;50.63;;
19521;SDS011;9905;52.126;5.596;2023-05-10T05:37:36;92.63;;;52.38;;
19521;SDS011;9905;52.126;5.596;2023-05-10T05:40:03;84.78;;;49.78;;
19521;SDS011;9905;52.126;5.596;2023-05-10T05:42:30;93.38;;;50.58;;
19521;SDS011;9905;52.126;5.596;2023-05-10T05:44:59;109.13;;;52.72;;
19521;SDS011;9905;52.126;5.596;2023-05-10T05:47:26;99.45;;;51.35;;
19521;SDS011;9905;52.126;5.596;2023-05-10T05:49:52;97.18;;;53.13;;
19521;SDS011;9905;52.126;5.596;2023-05-10T05:52:20;97.03;;;52.10;;
19521;SDS011;9905;52.126;5.596;2023-05-10T05:54:47;100.63;;;53.08;;
19521;SDS011;9905;52.126;5.596;2023-05-10T05:57:13;102.78;;;52.55;;
19521;SDS011;9905;52.126;5.596;2023-05-10T05:59:40;99.13;;;52.08;;
19521;SDS011;9905;52.126;5.596;2023-05-10T06:02:10;98.63;;;52.22;;
19521;SDS011;9905;52.126;5.596;2023-05-10T06:04:37;94.30;;;50.97;;
19521;SDS011;9905;52.126;5.596;2023-05-10T06:07:04;100.78;;;52.38;;
19521;SDS011;9905;52.126;5.596;2023-05-10T06:09:30;91.05;;;51.38;;
19521;SDS011;9905;52.126;5.596;2023-05-10T06:11:57;98.10;;;53.05;;
19521;SDS011;9905;52.126;5.596;2023-05-10T06:14:24;91.75;;;51.78;;
19521;SDS011;9905;52.126;5.596;2023-05-10T06:16:50;100.35;;;53.83;;
19521;SDS011;9905;52.126;5.596;2023-05-10T06:19:18;102.60;;;52.15;;
19521;SDS011;9905;52.126;5.596;2023-05-10T06:21:45;101.28;;;53.67;;
19521;SDS011;9905;52.126;5.596;2023-05-10T06:24:12;97.70;;;53.25;;
19521;SDS011;9905;52.126;5.596;2023-05-10T06:26:39;94.35;;;52.08;;
19521;SDS011;9905;52.126;5.596;2023-05-10T06:29:05;99.30;;;54.90;;
19521;SDS011;9905;52.126;5.596;2023-05-10T06:31:32;98.13;;;54.92;;
19521;SDS011;9905;52.126;5.596;2023-05-10T06:33:59;94.47;;;52.35;;
19521;SDS011;9905;52.126;5.596;2023-05-10T06:36:27;98.43;;;53.83;;
19521;SDS011;9905;52.126;5.596;2023-05-10T06:38:53;95.88;;;53.53;;
19521;SDS011;9905;52.126;5.596;2023-05-10T06:41:20;89.18;;;53.50;;
19521;SDS011;9905;52.126;5.596;2023-05-10T06:43:47;86.55;;;52.70;;
19521;SDS011;9905;52.126;5.596;2023-05-10T06:46:14;79.22;;;51.80;;
19521;SDS011;9905;52.126;5.596;2023-05-10T06:48:41;79.60;;;53.35;;
19521;SDS011;9905;52.126;5.596;2023-05-10T06:51:07;80.25;;;51.08;;
19521;SDS011;9905;52.126;5.596;2023-05-10T06:53:35;71.88;;;50.83;;
19521;SDS011;9905;52.126;5.596;2023-05-10T06:56:02;67.57;;;49.85;;
19521;SDS011;9905;52.126;5.596;2023-05-10T06:58:29;73.15;;;51.25;;
19521;SDS011;9905;52.126;5.596;2023-05-10T07:01:01;80.70;;;50.78;;
19521;SDS011;9905;52.126;5.596;2023-05-10T07:03:28;75.88;;;50.17;;
19521;SDS011;9905;52.126;5.596;2023-05-10T07:05:59;71.22;;;48.50;;
19521;SDS011;9905;52.126;5.596;2023-05-10T07:08:28;71.32;;;49.50;;
19521;SDS011;9905;52.126;5.596;2023-05-10T07:11:00;67.75;;;47.33;;
19521;SDS011;9905;52.126;5.596;2023-05-10T07:13:28;64.07;;;47.33;;
19521;SDS011;9905;52.126;5.596;2023-05-10T07:15:55;66.68;;;47.05;;
19521;SDS011;9905;52.126;5.596;2023-05-10T07:18:22;64.07;;;46.00;;
19521;SDS011;9905;52.126;5.596;2023-05-10T07:20:49;53.10;;;44.33;;
19521;SDS011;9905;52.126;5.596;2023-05-10T07:23:15;52.08;;;43.05;;
19521;SDS011;9905;52.126;5.596;2023-05-10T07:25:44;48.28;;;39.35;;
19521;SDS011;9905;52.126;5.596;2023-05-10T07:28:12;45.55;;;40.50;;
19521;SDS011;9905;52.126;5.596;2023-05-10T07:30:40;42.58;;;38.65;;
19521;SDS011;9905;52.126;5.596;2023-05-10T07:33:07;42.33;;;37.47;;
19521;SDS011;9905;52.126;5.596;2023-05-10T07:35:34;42.88;;;38.38;;
19521;SDS011;9905;52.126;5.596;2023-05-10T07:38:01;41.00;;;36.72;;
19521;SDS011;9905;52.126;5.596;2023-05-10T07:40:28;42.60;;;38.20;;
19521;SDS011;9905;52.126;5.596;2023-05-10T07:42:55;40.33;;;36.63;;
19521;SDS011;9905;52.126;5.596;2023-05-10T07:45:23;39.35;;;35.30;;
19521;SDS011;9905;52.126;5.596;2023-05-10T07:47:50;36.00;;;33.08;;
19521;SDS011;9905;52.126;5.596;2023-05-10T07:50:17;34.00;;;30.90;;
19521;SDS011;9905;52.126;5.596;2023-05-10T07:52:44;35.85;;;32.88;;
19521;SDS011;9905;52.126;5.596;2023-05-10T07:55:11;33.97;;;31.08;;
19521;SDS011;9905;52.126;5.596;2023-05-10T07:57:37;34.17;;;31.27;;
19521;SDS011;9905;52.126;5.596;2023-05-10T08:00:05;32.58;;;29.98;;
19521;SDS011;9905;52.126;5.596;2023-05-10T08:02:34;33.67;;;30.63;;
19521;SDS011;9905;52.126;5.596;2023-05-10T08:05:01;31.15;;;28.50;;
19521;SDS011;9905;52.126;5.596;2023-05-10T08:07:28;32.90;;;30.00;;
19521;SDS011;9905;52.126;5.596;2023-05-10T08:09:54;32.00;;;29.02;;
19521;SDS011;9905;52.126;5.596;2023-05-10T08:12:21;30.45;;;27.95;;
19521;SDS011;9905;52.126;5.596;2023-05-10T08:14:48;30.05;;;27.42;;
19521;SDS011;9905;52.126;5.596;2023-05-10T08:17:15;28.48;;;26.25;;
19521;SDS011;9905;52.126;5.596;2023-05-10T08:19:43;27.75;;;25.45;;
19521;SDS011;9905;52.126;5.596;2023-05-10T08:22:09;29.67;;;27.40;;
19521;SDS011;9905;52.126;5.596;2023-05-10T08:24:36;29.95;;;26.98;;
19521;SDS011;9905;52.126;5.596;2023-05-10T08:27:04;30.33;;;27.75;;
19521;SDS011;9905;52.126;5.596;2023-05-10T08:29:31;28.42;;;26.33;;
19521;SDS011;9905;52.126;5.596;2023-05-10T08:31:57;30.83;;;28.15;;
19521;SDS011;9905;52.126;5.596;2023-05-10T08:34:25;30.23;;;27.42;;
19521;SDS011;9905;52.126;5.596;2023-05-10T08:36:53;27.98;;;25.65;;
19521;SDS011;9905;52.126;5.596;2023-05-10T08:39:20;25.65;;;23.65;;
19521;SDS011;9905;52.126;5.596;2023-05-10T08:41:48;23.70;;;21.90;;
19521;SDS011;9905;52.126;5.596;2023-05-10T08:44:17;23.42;;;21.13;;
19521;SDS011;9905;52.126;5.596;2023-05-10T08:46:46;23.67;;;21.50;;
19521;SDS011;9905;52.126;5.596;2023-05-10T08:49:16;22.30;;;20.42;;
19521;SDS011;9905;52.126;5.596;2023-05-10T08:51:47;23.10;;;21.05;;
19521;SDS011;9905;52.126;5.596;2023-05-10T08:54:18;23.67;;;21.45;;
19521;SDS011;9905;52.126;5.596;2023-05-10T08:56:45;23.25;;;21.20;;
19521;SDS011;9905;52.126;5.596;2023-05-10T08:59:12;22.27;;;20.02;;
19521;SDS011;9905;52.126;5.596;2023-05-10T09:01:40;21.65;;;19.55;;
19521;SDS011;9905;52.126;5.596;2023-05-10T09:04:10;21.67;;;19.65;;
19521;SDS011;9905;52.126;5.596;2023-05-10T09:06:38;21.40;;;19.63;;
19521;SDS011;9905;52.126;5.596;2023-05-10T09:09:05;21.20;;;19.40;;
19521;SDS011;9905;52.126;5.596;2023-05-10T09:11:33;21.65;;;19.95;;
19521;SDS011;9905;52.126;5.596;2023-05-10T09:14:00;24.00;;;21.73;;
19521;SDS011;9905;52.126;5.596;2023-05-10T09:16:28;23.02;;;20.83;;
19521;SDS011;9905;52.126;5.596;2023-05-10T09:18:54;22.85;;;20.75;;
19521;SDS011;9905;52.126;5.596;2023-05-10T09:21:21;22.85;;;20.65;;
19521;SDS011;9905;52.126;5.596;2023-05-10T09:23:48;22.55;;;20.48;;
19521;SDS011;9905;52.126;5.596;2023-05-10T09:26:15;21.13;;;19.50;;
19521;SDS011;9905;52.126;5.596;2023-05-10T09:28:53;21.20;;;19.45;;
19521;SDS011;9905;52.126;5.596;2023-05-10T09:31:21;19.83;;;18.23;;
19521;SDS011;9905;52.126;5.596;2023-05-10T09:33:49;20.83;;;19.27;;
19521;SDS011;9905;52.126;5.596;2023-05-10T09:36:16;21.52;;;19.83;;
19521;SDS011;9905;52.126;5.596;2023-05-10T09:38:46;22.70;;;20.70;;
19521;SDS011;9905;52.126;5.596;2023-05-10T09:41:17;23.02;;;20.67;;
19521;SDS011;9905;52.126;5.596;2023-05-10T09:43:45;21.58;;;19.77;;
19521;SDS011;9905;52.126;5.596;2023-05-10T09:46:13;24.33;;;22.10;;
19521;SDS011;9905;52.126;5.596;2023-05-10T09:48:41;23.90;;;21.75;;
19521;SDS011;9905;52.126;5.596;2023-05-10T09:51:09;23.70;;;21.58;;
19521;SDS011;9905;52.126;5.596;2023-05-10T09:53:36;22.08;;;20.25;;
19521;SDS011;9905;52.126;5.596;2023-05-10T09:56:03;21.73;;;19.88;;
19521;SDS011;9905;52.126;5.596;2023-05-10T09:58:30;19.40;;;17.98;;
19521;SDS011;9905;52.126;5.596;2023-05-10T10:00:57;19.05;;;17.38;;
19521;SDS011;9905;52.126;5.596;2023-05-10T10:03:25;18.52;;;17.08;;
19521;SDS011;9905;52.126;5.596;2023-05-10T10:05:52;16.52;;;15.00;;
19521;SDS011;9905;52.126;5.596;2023-05-10T10:08:21;17.95;;;16.15;;
19521;SDS011;9905;52.126;5.596;2023-05-10T10:10:48;17.50;;;16.17;;
19521;SDS011;9905;52.126;5.596;2023-05-10T10:13:15;16.40;;;14.95;;
19521;SDS011;9905;52.126;5.596;2023-05-10T10:15:42;15.98;;;14.73;;
19521;SDS011;9905;52.126;5.596;2023-05-10T10:18:12;14.55;;;13.45;;
19521;SDS011;9905;52.126;5.596;2023-05-10T10:20:41;15.43;;;14.25;;
19521;SDS011;9905;52.126;5.596;2023-05-10T10:23:08;15.00;;;13.98;;
19521;SDS011;9905;52.126;5.596;2023-05-10T10:25:35;13.43;;;12.40;;
19521;SDS011;9905;52.126;5.596;2023-05-10T10:28:07;13.88;;;12.77;;
19521;SDS011;9905;52.126;5.596;2023-05-10T10:30:42;10.55;;;9.75;;
19521;SDS011;9905;52.126;5.596;2023-05-10T10:36:04;11.05;;;10.07;;
19521;SDS011;9905;52.126;5.596;2023-05-10T10:38:38;10.07;;;9.30;;
19521;SDS011;9905;52.126;5.596;2023-05-10T10:41:28;10.63;;;9.85;;
19521;SDS011;9905;52.126;5.596;2023-05-10T10:47:06;9.48;;;8.80;;
19521;SDS011;9905;52.126;5.596;2023-05-10T10:49:38;10.55;;;9.82;;
19521;SDS011;9905;52.126;5.596;2023-05-10T10:52:20;9.77;;;8.90;;
19521;SDS011;9905;52.126;5.596;2023-05-10T10:54:51;8.63;;;8.13;;
19521;SDS011;9905;52.126;5.596;2023-05-10T10:57:19;8.10;;;7.60;;
19521;SDS011;9905;52.126;5.596;2023-05-10T10:59:47;9.45;;;8.80;;
19521;SDS011;9905;52.126;5.596;2023-05-10T11:08:13;10.10;;;9.40;;
19521;SDS011;9905;52.126;5.596;2023-05-10T11:13:33;10.80;;;9.95;;
19521;SDS011;9905;52.126;5.596;2023-05-10T11:16:13;11.27;;;10.30;;
19521;SDS011;9905;52.126;5.596;2023-05-10T11:18:51;12.15;;;11.10;;
19521;SDS011;9905;52.126;5.596;2023-05-10T11:21:28;10.75;;;10.05;;
19521;SDS011;9905;52.126;5.596;2023-05-10T11:23:58;11.30;;;10.40;;
19521;SDS011;9905;52.126;5.596;2023-05-10T11:26:25;11.63;;;10.70;;
19521;SDS011;9905;52.126;5.596;2023-05-10T11:28:56;11.75;;;10.65;;
19521;SDS011;9905;52.126;5.596;2023-05-10T11:31:24;11.90;;;11.00;;
19521;SDS011;9905;52.126;5.596;2023-05-10T11:33:52;10.20;;;9.48;;
19521;SDS011;9905;52.126;5.596;2023-05-10T11:36:20;10.02;;;9.07;;
19521;SDS011;9905;52.126;5.596;2023-05-10T11:38:49;10.48;;;9.73;;
19521;SDS011;9905;52.126;5.596;2023-05-10T11:41:18;10.27;;;9.43;;
19521;SDS011;9905;52.126;5.596;2023-05-10T11:43:46;11.48;;;10.40;;
19521;SDS011;9905;52.126;5.596;2023-05-10T11:46:15;10.82;;;10.13;;
19521;SDS011;9905;52.126;5.596;2023-05-10T11:48:45;10.68;;;9.90;;
19521;SDS011;9905;52.126;5.596;2023-05-10T11:51:12;10.73;;;9.63;;
19521;SDS011;9905;52.126;5.596;2023-05-10T11:53:39;10.00;;;9.20;;
19521;SDS011;9905;52.126;5.596;2023-05-10T11:56:06;8.52;;;7.88;;
19521;SDS011;9905;52.126;5.596;2023-05-10T11:58:36;8.55;;;8.05;;
19521;SDS011;9905;52.126;5.596;2023-05-10T12:01:04;8.07;;;7.65;;
19521;SDS011;9905;52.126;5.596;2023-05-10T12:03:32;8.73;;;8.13;;
19521;SDS011;9905;52.126;5.596;2023-05-10T12:06:00;9.30;;;8.70;;
19521;SDS011;9905;52.126;5.596;2023-05-10T12:08:27;9.23;;;8.63;;
19521;SDS011;9905;52.126;5.596;2023-05-10T12:11:03;9.57;;;8.98;;
19521;SDS011;9905;52.126;5.596;2023-05-10T12:13:31;9.40;;;8.85;;
19521;SDS011;9905;52.126;5.596;2023-05-10T12:15:59;8.80;;;8.00;;
19521;SDS011;9905;52.126;5.596;2023-05-10T12:18:38;9.27;;;8.63;;
19521;SDS011;9905;52.126;5.596;2023-05-10T12:21:06;9.98;;;8.98;;
19521;SDS011;9905;52.126;5.596;2023-05-10T12:23:33;9.43;;;8.55;;
19521;SDS011;9905;52.126;5.596;2023-05-10T12:26:01;9.65;;;8.85;;
19521;SDS011;9905;52.126;5.596;2023-05-10T12:28:29;8.48;;;7.75;;
19521;SDS011;9905;52.126;5.596;2023-05-10T12:30:57;8.77;;;7.80;;
19521;SDS011;9905;52.126;5.596;2023-05-10T12:33:25;7.93;;;7.28;;
19521;SDS011;9905;52.126;5.596;2023-05-10T12:35:53;7.60;;;7.15;;
19521;SDS011;9905;52.126;5.596;2023-05-10T12:38:28;7.97;;;7.28;;
19521;SDS011;9905;52.126;5.596;2023-05-10T12:40:56;8.02;;;7.47;;
19521;SDS011;9905;52.126;5.596;2023-05-10T12:43:23;7.85;;;7.15;;
19521;SDS011;9905;52.126;5.596;2023-05-10T12:45:50;7.40;;;6.95;;
19521;SDS011;9905;52.126;5.596;2023-05-10T12:48:18;6.78;;;6.40;;
19521;SDS011;9905;52.126;5.596;2023-05-10T12:50:45;7.07;;;6.60;;
19521;SDS011;9905;52.126;5.596;2023-05-10T12:53:12;7.45;;;6.75;;
19521;SDS011;9905;52.126;5.596;2023-05-10T12:55:40;7.13;;;6.45;;
19521;SDS011;9905;52.126;5.596;2023-05-10T12:58:07;6.57;;;6.07;;
19521;SDS011;9905;52.126;5.596;2023-05-10T13:00:33;6.65;;;6.15;;
19521;SDS011;9905;52.126;5.596;2023-05-10T13:03:02;6.65;;;6.20;;
19521;SDS011;9905;52.126;5.596;2023-05-10T13:05:31;6.80;;;6.28;;
19521;SDS011;9905;52.126;5.596;2023-05-10T13:07:58;6.32;;;6.00;;
19521;SDS011;9905;52.126;5.596;2023-05-10T13:10:25;5.95;;;5.47;;
19521;SDS011;9905;52.126;5.596;2023-05-10T13:12:52;6.25;;;5.20;;
19521;SDS011;9905;52.126;5.596;2023-05-10T13:15:19;5.25;;;4.88;;
19521;SDS011;9905;52.126;5.596;2023-05-10T13:17:45;5.35;;;5.00;;
19521;SDS011;9905;52.126;5.596;2023-05-10T13:20:12;5.10;;;4.80;;
19521;SDS011;9905;52.126;5.596;2023-05-10T13:22:40;4.95;;;4.65;;
19521;SDS011;9905;52.126;5.596;2023-05-10T13:25:08;5.30;;;4.95;;
19521;SDS011;9905;52.126;5.596;2023-05-10T13:27:35;4.38;;;4.10;;
19521;SDS011;9905;52.126;5.596;2023-05-10T13:30:02;4.78;;;4.47;;
19521;SDS011;9905;52.126;5.596;2023-05-10T13:32:29;4.68;;;4.38;;
19521;SDS011;9905;52.126;5.596;2023-05-10T13:34:56;4.72;;;4.50;;
19521;SDS011;9905;52.126;5.596;2023-05-10T13:37:23;4.55;;;4.25;;
19521;SDS011;9905;52.126;5.596;2023-05-10T13:39:51;4.82;;;4.47;;
19521;SDS011;9905;52.126;5.596;2023-05-10T13:42:18;4.45;;;4.20;;
19521;SDS011;9905;52.126;5.596;2023-05-10T13:44:44;4.40;;;4.15;;
19521;SDS011;9905;52.126;5.596;2023-05-10T13:47:11;4.88;;;4.57;;
19521;SDS011;9905;52.126;5.596;2023-05-10T13:49:38;6.72;;;6.32;;
19521;SDS011;9905;52.126;5.596;2023-05-10T13:52:04;6.28;;;5.93;;
19521;SDS011;9905;52.126;5.596;2023-05-10T13:54:32;6.18;;;5.70;;
19521;SDS011;9905;52.126;5.596;2023-05-10T13:57:00;6.97;;;6.47;;
19521;SDS011;9905;52.126;5.596;2023-05-10T13:59:26;6.05;;;5.63;;
19521;SDS011;9905;52.126;5.596;2023-05-10T14:01:56;6.25;;;5.75;;
19521;SDS011;9905;52.126;5.596;2023-05-10T14:04:23;6.22;;;5.60;;
19521;SDS011;9905;52.126;5.596;2023-05-10T14:06:49;6.00;;;5.50;;
19521;SDS011;9905;52.126;5.596;2023-05-10T14:09:17;5.68;;;5.30;;
19521;SDS011;9905;52.126;5.596;2023-05-10T14:11:44;7.18;;;6.10;;
19521;SDS011;9905;52.126;5.596;2023-05-10T14:14:13;6.28;;;5.82;;
19521;SDS011;9905;52.126;5.596;2023-05-10T14:16:41;5.40;;;5.15;;
19521;SDS011;9905;52.126;5.596;2023-05-10T14:19:08;6.40;;;5.90;;
19521;SDS011;9905;52.126;5.596;2023-05-10T14:21:35;6.43;;;6.13;;
19521;SDS011;9905;52.126;5.596;2023-05-10T14:24:02;6.40;;;6.00;;
19521;SDS011;9905;52.126;5.596;2023-05-10T14:26:29;5.85;;;5.60;;
19521;SDS011;9905;52.126;5.596;2023-05-10T14:28:56;7.70;;;7.38;;
19521;SDS011;9905;52.126;5.596;2023-05-10T14:31:25;6.57;;;6.28;;
19521;SDS011;9905;52.126;5.596;2023-05-10T14:33:52;6.55;;;6.22;;
19521;SDS011;9905;52.126;5.596;2023-05-10T14:36:19;7.25;;;6.95;;
19521;SDS011;9905;52.126;5.596;2023-05-10T14:38:45;7.70;;;7.30;;
19521;SDS011;9905;52.126;5.596;2023-05-10T14:41:12;7.40;;;6.90;;
19521;SDS011;9905;52.126;5.596;2023-05-10T14:43:40;7.88;;;7.43;;
19521;SDS011;9905;52.126;5.596;2023-05-10T14:46:07;8.55;;;8.07;;
19521;SDS011;9905;52.126;5.596;2023-05-10T14:48:35;7.80;;;7.50;;
19521;SDS011;9905;52.126;5.596;2023-05-10T14:51:02;8.18;;;7.88;;
19521;SDS011;9905;52.126;5.596;2023-05-10T14:53:29;7.80;;;7.45;;
19521;SDS011;9905;52.126;5.596;2023-05-10T14:55:56;7.78;;;7.38;;
19521;SDS011;9905;52.126;5.596;2023-05-10T14:58:25;9.25;;;8.68;;
19521;SDS011;9905;52.126;5.596;2023-05-10T15:00:51;10.30;;;9.45;;
19521;SDS011;9905;52.126;5.596;2023-05-10T15:03:18;9.32;;;8.93;;
19521;SDS011;9905;52.126;5.596;2023-05-10T15:05:46;10.07;;;9.57;;